sensor_id;sensor_type;location;lat;lon;timestamp;P1;durP1;ratioP1;P2;durP2;ratioP2
12635;SDS011;6383;50.830;7.210;2023-04-25T00:00:06;7.88;;;3.47;;
12635;SDS011;6383;50.830;7.210;2023-04-25T00:02:36;7.40;;;3.80;;
12635;SDS011;6383;50.830;7.210;2023-04-25T00:05:05;10.15;;;4.40;;
12635;SDS011;6383;50.830;7.210;2023-04-25T00:07:34;10.73;;;4.22;;
12635;SDS011;6383;50.830;7.210;2023-04-25T00:10:02;7.63;;;4.30;;
12635;SDS011;6383;50.830;7.210;2023-04-25T00:12:32;11.10;;;4.60;;
12635;SDS011;6383;50.830;7.210;2023-04-25T00:15:02;12.63;;;4.67;;
12635;SDS011;6383;50.830;7.210;2023-04-25T00:17:31;14.65;;;5.20;;
12635;SDS011;6383;50.830;7.210;2023-04-25T00:20:00;11.57;;;5.15;;
12635;SDS011;6383;50.830;7.210;2023-04-25T00:22:32;15.07;;;6.13;;
12635;SDS011;6383;50.830;7.210;2023-04-25T00:25:01;13.45;;;4.63;;
12635;SDS011;6383;50.830;7.210;2023-04-25T00:27:30;12.80;;;4.80;;
12635;SDS011;6383;50.830;7.210;2023-04-25T00:30:00;13.18;;;5.25;;
12635;SDS011;6383;50.830;7.210;2023-04-25T00:32:30;16.35;;;5.75;;
12635;SDS011;6383;50.830;7.210;2023-04-25T00:34:58;13.55;;;4.82;;
12635;SDS011;6383;50.830;7.210;2023-04-25T00:37:27;9.90;;;4.55;;
12635;SDS011;6383;50.830;7.210;2023-04-25T00:39:55;15.15;;;5.00;;
12635;SDS011;6383;50.830;7.210;2023-04-25T00:42:24;15.50;;;5.35;;
12635;SDS011;6383;50.830;7.210;2023-04-25T00:44:52;11.63;;;4.65;;
12635;SDS011;6383;50.830;7.210;2023-04-25T00:47:22;10.98;;;4.78;;
12635;SDS011;6383;50.830;7.210;2023-04-25T00:49:51;10.75;;;4.65;;
12635;SDS011;6383;50.830;7.210;2023-04-25T00:52:21;13.15;;;5.28;;
12635;SDS011;6383;50.830;7.210;2023-04-25T00:54:50;13.90;;;4.83;;
12635;SDS011;6383;50.830;7.210;2023-04-25T00:57:19;14.60;;;4.78;;
12635;SDS011;6383;50.830;7.210;2023-04-25T00:59:47;13.38;;;5.00;;
12635;SDS011;6383;50.830;7.210;2023-04-25T01:02:18;15.40;;;5.50;;
12635;SDS011;6383;50.830;7.210;2023-04-25T01:04:48;11.35;;;5.20;;
12635;SDS011;6383;50.830;7.210;2023-04-25T01:07:17;11.48;;;4.80;;
12635;SDS011;6383;50.830;7.210;2023-04-25T01:09:45;14.33;;;5.40;;
12635;SDS011;6383;50.830;7.210;2023-04-25T01:12:14;14.45;;;4.80;;
12635;SDS011;6383;50.830;7.210;2023-04-25T01:14:43;15.73;;;6.15;;
12635;SDS011;6383;50.830;7.210;2023-04-25T01:17:11;15.02;;;5.10;;
12635;SDS011;6383;50.830;7.210;2023-04-25T01:19:41;15.10;;;5.40;;
12635;SDS011;6383;50.830;7.210;2023-04-25T01:22:09;14.23;;;5.53;;
12635;SDS011;6383;50.830;7.210;2023-04-25T01:24:39;18.98;;;6.40;;
12635;SDS011;6383;50.830;7.210;2023-04-25T01:27:08;15.37;;;5.90;;
12635;SDS011;6383;50.830;7.210;2023-04-25T01:29:38;16.73;;;6.22;;
12635;SDS011;6383;50.830;7.210;2023-04-25T01:32:06;13.07;;;5.38;;
12635;SDS011;6383;50.830;7.210;2023-04-25T01:34:36;12.98;;;5.38;;
12635;SDS011;6383;50.830;7.210;2023-04-25T01:37:03;18.07;;;5.83;;
12635;SDS011;6383;50.830;7.210;2023-04-25T01:39:32;14.98;;;5.80;;
12635;SDS011;6383;50.830;7.210;2023-04-25T01:42:00;14.82;;;6.28;;
12635;SDS011;6383;50.830;7.210;2023-04-25T01:44:29;18.35;;;6.57;;
12635;SDS011;6383;50.830;7.210;2023-04-25T01:46:58;14.98;;;5.80;;
12635;SDS011;6383;50.830;7.210;2023-04-25T01:49:26;22.95;;;6.25;;
12635;SDS011;6383;50.830;7.210;2023-04-25T01:51:55;18.48;;;5.82;;
12635;SDS011;6383;50.830;7.210;2023-04-25T01:54:23;15.25;;;5.78;;
12635;SDS011;6383;50.830;7.210;2023-04-25T01:56:53;16.92;;;5.30;;
12635;SDS011;6383;50.830;7.210;2023-04-25T01:59:25;14.80;;;5.15;;
12635;SDS011;6383;50.830;7.210;2023-04-25T02:01:53;15.02;;;5.88;;
12635;SDS011;6383;50.830;7.210;2023-04-25T02:04:21;12.40;;;4.93;;
12635;SDS011;6383;50.830;7.210;2023-04-25T02:06:50;13.00;;;5.35;;
12635;SDS011;6383;50.830;7.210;2023-04-25T02:09:19;15.10;;;6.03;;
12635;SDS011;6383;50.830;7.210;2023-04-25T02:11:46;16.55;;;5.47;;
12635;SDS011;6383;50.830;7.210;2023-04-25T02:14:17;13.52;;;5.30;;
12635;SDS011;6383;50.830;7.210;2023-04-25T02:16:45;11.60;;;5.57;;
12635;SDS011;6383;50.830;7.210;2023-04-25T02:19:13;13.75;;;5.53;;
12635;SDS011;6383;50.830;7.210;2023-04-25T02:21:42;14.95;;;5.95;;
12635;SDS011;6383;50.830;7.210;2023-04-25T02:24:09;14.37;;;5.07;;
12635;SDS011;6383;50.830;7.210;2023-04-25T02:26:38;13.30;;;5.32;;
12635;SDS011;6383;50.830;7.210;2023-04-25T02:29:07;14.35;;;5.60;;
12635;SDS011;6383;50.830;7.210;2023-04-25T02:31:37;15.75;;;5.40;;
12635;SDS011;6383;50.830;7.210;2023-04-25T02:34:06;14.85;;;5.53;;
12635;SDS011;6383;50.830;7.210;2023-04-25T02:36:36;14.03;;;5.70;;
12635;SDS011;6383;50.830;7.210;2023-04-25T02:39:03;14.70;;;5.95;;
12635;SDS011;6383;50.830;7.210;2023-04-25T02:41:32;15.45;;;6.40;;
12635;SDS011;6383;50.830;7.210;2023-04-25T02:44:01;13.80;;;5.55;;
12635;SDS011;6383;50.830;7.210;2023-04-25T02:46:28;16.37;;;5.80;;
12635;SDS011;6383;50.830;7.210;2023-04-25T20:37:27;10.40;;;5.88;;
12635;SDS011;6383;50.830;7.210;2023-04-25T20:39:57;12.30;;;6.57;;
12635;SDS011;6383;50.830;7.210;2023-04-25T20:42:27;13.57;;;7.88;;
12635;SDS011;6383;50.830;7.210;2023-04-25T20:44:56;14.87;;;7.27;;
12635;SDS011;6383;50.830;7.210;2023-04-25T20:47:26;12.25;;;6.80;;
12635;SDS011;6383;50.830;7.210;2023-04-25T20:49:54;11.02;;;6.43;;
12635;SDS011;6383;50.830;7.210;2023-04-25T20:52:24;11.10;;;6.18;;
12635;SDS011;6383;50.830;7.210;2023-04-25T20:54:54;12.07;;;6.55;;
12635;SDS011;6383;50.830;7.210;2023-04-25T20:57:23;12.77;;;6.78;;
12635;SDS011;6383;50.830;7.210;2023-04-25T20:59:52;11.73;;;6.40;;
12635;SDS011;6383;50.830;7.210;2023-04-25T21:02:22;11.52;;;6.32;;
12635;SDS011;6383;50.830;7.210;2023-04-25T21:04:51;12.90;;;6.78;;
12635;SDS011;6383;50.830;7.210;2023-04-25T21:07:20;11.00;;;5.90;;
12635;SDS011;6383;50.830;7.210;2023-04-25T21:09:49;15.90;;;9.20;;
12635;SDS011;6383;50.830;7.210;2023-04-25T21:12:20;11.68;;;4.75;;
12635;SDS011;6383;50.830;7.210;2023-04-25T21:14:48;13.13;;;5.45;;
12635;SDS011;6383;50.830;7.210;2023-04-25T21:17:17;10.48;;;5.90;;
12635;SDS011;6383;50.830;7.210;2023-04-25T21:19:44;12.25;;;6.50;;
12635;SDS011;6383;50.830;7.210;2023-04-25T21:22:14;13.35;;;6.63;;
12635;SDS011;6383;50.830;7.210;2023-04-25T21:25:00;11.37;;;4.90;;
12635;SDS011;6383;50.830;7.210;2023-04-25T21:27:33;15.80;;;9.40;;
12635;SDS011;6383;50.830;7.210;2023-04-25T21:30:02;22.30;;;12.38;;
12635;SDS011;6383;50.830;7.210;2023-04-25T21:32:30;23.80;;;14.25;;
12635;SDS011;6383;50.830;7.210;2023-04-25T21:34:58;40.50;;;26.23;;
12635;SDS011;6383;50.830;7.210;2023-04-25T21:37:26;32.78;;;22.13;;
12635;SDS011;6383;50.830;7.210;2023-04-25T21:39:54;25.15;;;16.55;;
12635;SDS011;6383;50.830;7.210;2023-04-25T21:42:22;24.30;;;15.15;;
12635;SDS011;6383;50.830;7.210;2023-04-25T21:44:51;20.27;;;13.10;;
12635;SDS011;6383;50.830;7.210;2023-04-25T21:47:20;17.27;;;8.50;;
12635;SDS011;6383;50.830;7.210;2023-04-25T21:49:50;10.45;;;6.15;;
12635;SDS011;6383;50.830;7.210;2023-04-25T21:52:19;16.08;;;7.30;;
12635;SDS011;6383;50.830;7.210;2023-04-25T21:54:48;10.02;;;5.03;;
12635;SDS011;6383;50.830;7.210;2023-04-25T21:57:16;9.90;;;4.93;;
12635;SDS011;6383;50.830;7.210;2023-04-25T21:59:44;9.30;;;4.18;;
12635;SDS011;6383;50.830;7.210;2023-04-25T22:02:14;9.15;;;4.97;;
12635;SDS011;6383;50.830;7.210;2023-04-25T22:04:45;14.35;;;7.15;;
12635;SDS011;6383;50.830;7.210;2023-04-25T22:07:14;15.25;;;8.88;;
12635;SDS011;6383;50.830;7.210;2023-04-25T22:09:42;12.57;;;7.80;;
12635;SDS011;6383;50.830;7.210;2023-04-25T22:12:10;15.23;;;8.20;;
12635;SDS011;6383;50.830;7.210;2023-04-25T22:14:39;12.13;;;6.90;;
12635;SDS011;6383;50.830;7.210;2023-04-25T22:17:11;10.50;;;5.25;;
12635;SDS011;6383;50.830;7.210;2023-04-25T22:19:41;13.02;;;4.00;;
12635;SDS011;6383;50.830;7.210;2023-04-25T22:22:10;10.68;;;3.60;;
12635;SDS011;6383;50.830;7.210;2023-04-25T22:24:38;11.25;;;4.43;;
12635;SDS011;6383;50.830;7.210;2023-04-25T22:27:07;8.63;;;3.97;;
12635;SDS011;6383;50.830;7.210;2023-04-25T22:29:37;8.00;;;4.00;;
12635;SDS011;6383;50.830;7.210;2023-04-25T22:32:06;8.83;;;3.37;;
12635;SDS011;6383;50.830;7.210;2023-04-25T22:34:35;6.93;;;3.58;;
12635;SDS011;6383;50.830;7.210;2023-04-25T22:37:05;10.52;;;3.45;;
12635;SDS011;6383;50.830;7.210;2023-04-25T22:39:34;8.00;;;3.38;;
12635;SDS011;6383;50.830;7.210;2023-04-25T22:42:04;9.23;;;3.60;;
12635;SDS011;6383;50.830;7.210;2023-04-25T22:44:33;7.93;;;3.10;;
12635;SDS011;6383;50.830;7.210;2023-04-25T22:47:00;7.07;;;3.40;;
12635;SDS011;6383;50.830;7.210;2023-04-25T22:49:28;9.13;;;3.47;;
12635;SDS011;6383;50.830;7.210;2023-04-25T22:51:55;11.23;;;2.97;;
12635;SDS011;6383;50.830;7.210;2023-04-25T22:54:24;9.75;;;2.83;;
12635;SDS011;6383;50.830;7.210;2023-04-25T22:56:53;9.15;;;2.88;;
12635;SDS011;6383;50.830;7.210;2023-04-25T22:59:21;10.35;;;3.67;;
12635;SDS011;6383;50.830;7.210;2023-04-25T23:01:49;8.18;;;3.55;;
12635;SDS011;6383;50.830;7.210;2023-04-25T23:04:16;9.30;;;3.53;;
12635;SDS011;6383;50.830;7.210;2023-04-25T23:06:46;9.20;;;3.40;;
12635;SDS011;6383;50.830;7.210;2023-04-25T23:09:14;9.70;;;3.08;;
12635;SDS011;6383;50.830;7.210;2023-04-25T23:11:44;7.30;;;2.73;;
12635;SDS011;6383;50.830;7.210;2023-04-25T23:14:13;12.35;;;3.40;;
12635;SDS011;6383;50.830;7.210;2023-04-25T23:16:42;8.87;;;3.30;;
12635;SDS011;6383;50.830;7.210;2023-04-25T23:19:10;9.37;;;2.83;;
12635;SDS011;6383;50.830;7.210;2023-04-25T23:21:38;12.13;;;3.35;;
12635;SDS011;6383;50.830;7.210;2023-04-25T23:24:06;9.65;;;3.20;;
12635;SDS011;6383;50.830;7.210;2023-04-25T23:26:34;9.52;;;2.70;;
12635;SDS011;6383;50.830;7.210;2023-04-25T23:29:04;7.35;;;3.13;;
12635;SDS011;6383;50.830;7.210;2023-04-25T23:31:34;8.52;;;2.95;;
12635;SDS011;6383;50.830;7.210;2023-04-25T23:34:02;5.05;;;2.40;;
12635;SDS011;6383;50.830;7.210;2023-04-25T23:36:30;7.65;;;3.35;;
12635;SDS011;6383;50.830;7.210;2023-04-25T23:38:58;7.53;;;2.80;;
12635;SDS011;6383;50.830;7.210;2023-04-25T23:41:27;6.53;;;2.67;;
12635;SDS011;6383;50.830;7.210;2023-04-25T23:43:58;5.57;;;2.63;;
12635;SDS011;6383;50.830;7.210;2023-04-25T23:46:28;7.32;;;2.33;;
12635;SDS011;6383;50.830;7.210;2023-04-25T23:48:56;8.30;;;2.67;;
12635;SDS011;6383;50.830;7.210;2023-04-25T23:51:24;6.93;;;2.30;;
12635;SDS011;6383;50.830;7.210;2023-04-25T23:53:54;6.68;;;2.60;;
12635;SDS011;6383;50.830;7.210;2023-04-25T23:56:23;7.60;;;2.60;;
12635;SDS011;6383;50.830;7.210;2023-04-25T23:58:52;8.05;;;2.95;;
